Terminal Aerodrome Forecast
Issued by NWS

Home | Current Version | Previous Version | Text Only | Print | Product List | Glossary On
Versions: 1 2 3 4 5 6 7 8 9 10 11 12 13 14 15 16 17 18 19 20 21
000
FTUS42 KMHX 231100 AAA
TAFOAJ
TAF AMD
KOAJ 231143Z 2312/2412 05005KT P6SM VCSH BKN050
      TEMPO 2312/2313 BKN025
     FM231800 07006KT P6SM VCTS BKN050CB
     FM240000 05003KT P6SM SCT025 BKN100
      AMD LTD TO CLD VIS AND WIND=

USA.gov is the U.S. government's official web portal to all federal, state and local government web resources and services.